sensor_id;sensor_type;location;lat;lon;timestamp;pressure;altitude;pressure_sealevel;temperature
62930;BMP280;49036;42.782;23.108;2023-03-01T00:00:36;94395.72;;;4.20
62930;BMP280;49036;42.782;23.108;2023-03-01T00:03:02;94403.44;;;4.22
62930;BMP280;49036;42.782;23.108;2023-03-01T00:05:27;94390.44;;;4.22
62930;BMP280;49036;42.782;23.108;2023-03-01T00:07:53;94397.72;;;4.20
62930;BMP280;49036;42.782;23.108;2023-03-01T00:10:18;94396.78;;;4.17
62930;BMP280;49036;42.782;23.108;2023-03-01T00:12:44;94380.13;;;4.15
62930;BMP280;49036;42.782;23.108;2023-03-01T00:15:10;94380.41;;;4.12
62930;BMP280;49036;42.782;23.108;2023-03-01T00:17:35;94377.69;;;4.12
62930;BMP280;49036;42.782;23.108;2023-03-01T00:20:01;94382.84;;;4.15
62930;BMP280;49036;42.782;23.108;2023-03-01T00:22:26;94377.88;;;4.14
62930;BMP280;49036;42.782;23.108;2023-03-01T00:24:53;94371.88;;;4.15
62930;BMP280;49036;42.782;23.108;2023-03-01T00:27:19;94372.38;;;4.14
62930;BMP280;49036;42.782;23.108;2023-03-01T00:29:45;94364.69;;;4.12
62930;BMP280;49036;42.782;23.108;2023-03-01T00:32:10;94364.88;;;4.14
62930;BMP280;49036;42.782;23.108;2023-03-01T00:34:36;94362.88;;;4.15
62930;BMP280;49036;42.782;23.108;2023-03-01T00:37:01;94368.78;;;4.19
62930;BMP280;49036;42.782;23.108;2023-03-01T00:39:31;94354.84;;;4.17
62930;BMP280;49036;42.782;23.108;2023-03-01T00:41:57;94350.22;;;4.12
62930;BMP280;49036;42.782;23.108;2023-03-01T00:44:22;94343.97;;;4.11
62930;BMP280;49036;42.782;23.108;2023-03-01T00:46:48;94348.78;;;4.11
62930;BMP280;49036;42.782;23.108;2023-03-01T00:49:13;94346.19;;;4.13
62930;BMP280;49036;42.782;23.108;2023-03-01T00:51:39;94350.03;;;4.10
62930;BMP280;49036;42.782;23.108;2023-03-01T00:54:09;94351.31;;;4.09
62930;BMP280;49036;42.782;23.108;2023-03-01T00:56:34;94346.56;;;4.09
62930;BMP280;49036;42.782;23.108;2023-03-01T00:59:00;94351.09;;;4.07
62930;BMP280;49036;42.782;23.108;2023-03-01T01:01:28;94351.81;;;4.07
62930;BMP280;49036;42.782;23.108;2023-03-01T01:04:03;94356.56;;;4.07
62930;BMP280;49036;42.782;23.108;2023-03-01T01:06:32;94352.91;;;4.04
62930;BMP280;49036;42.782;23.108;2023-03-01T01:08:58;94350.47;;;4.00
62930;BMP280;49036;42.782;23.108;2023-03-01T01:11:26;94360.91;;;4.02
62930;BMP280;49036;42.782;23.108;2023-03-01T01:13:52;94361.44;;;4.00
62930;BMP280;49036;42.782;23.108;2023-03-01T01:16:19;94358.38;;;4.04
62930;BMP280;49036;42.782;23.108;2023-03-01T01:18:45;94362.41;;;4.03
62930;BMP280;49036;42.782;23.108;2023-03-01T01:21:14;94364.19;;;4.00
62930;BMP280;49036;42.782;23.108;2023-03-01T01:23:40;94368.41;;;4.01
62930;BMP280;49036;42.782;23.108;2023-03-01T01:26:09;94359.78;;;3.97
62930;BMP280;49036;42.782;23.108;2023-03-01T01:28:35;94359.38;;;3.93
62930;BMP280;49036;42.782;23.108;2023-03-01T01:31:01;94353.88;;;3.93
62930;BMP280;49036;42.782;23.108;2023-03-01T01:33:26;94351.53;;;3.97
62930;BMP280;49036;42.782;23.108;2023-03-01T01:35:52;94361.91;;;3.91
62930;BMP280;49036;42.782;23.108;2023-03-01T01:38:18;94364.13;;;3.93
62930;BMP280;49036;42.782;23.108;2023-03-01T01:40:45;94359.91;;;3.92
62930;BMP280;49036;42.782;23.108;2023-03-01T01:43:23;94363.91;;;3.91
62930;BMP280;49036;42.782;23.108;2023-03-01T01:45:49;94358.97;;;3.89
62930;BMP280;49036;42.782;23.108;2023-03-01T01:48:28;94363.69;;;3.89
62930;BMP280;49036;42.782;23.108;2023-03-01T01:51:06;94363.69;;;3.89
62930;BMP280;49036;42.782;23.108;2023-03-01T01:53:33;94358.53;;;3.85
62930;BMP280;49036;42.782;23.108;2023-03-01T01:56:00;94351.03;;;3.86
62930;BMP280;49036;42.782;23.108;2023-03-01T01:58:28;94342.81;;;3.86
62930;BMP280;49036;42.782;23.108;2023-03-01T02:00:54;94342.16;;;3.80
62930;BMP280;49036;42.782;23.108;2023-03-01T02:03:25;94343.44;;;3.79
62930;BMP280;49036;42.782;23.108;2023-03-01T02:06:13;94345.22;;;3.76
62930;BMP280;49036;42.782;23.108;2023-03-01T02:08:42;94334.59;;;3.72
62930;BMP280;49036;42.782;23.108;2023-03-01T02:11:09;94334.19;;;3.68
62930;BMP280;49036;42.782;23.108;2023-03-01T02:13:36;94329.22;;;3.67
62930;BMP280;49036;42.782;23.108;2023-03-01T02:16:09;94330.50;;;3.66
62930;BMP280;49036;42.782;23.108;2023-03-01T02:18:35;94328.47;;;3.66
62930;BMP280;49036;42.782;23.108;2023-03-01T02:27:04;94320.91;;;3.59
62930;BMP280;49036;42.782;23.108;2023-03-01T02:29:30;94317.41;;;3.59
62930;BMP280;49036;42.782;23.108;2023-03-01T02:31:58;94324.38;;;3.60
62930;BMP280;49036;42.782;23.108;2023-03-01T02:34:25;94318.47;;;3.56
62930;BMP280;49036;42.782;23.108;2023-03-01T02:37:03;94319.75;;;3.55
62930;BMP280;49036;42.782;23.108;2023-03-01T02:39:37;94323.97;;;3.56
62930;BMP280;49036;42.782;23.108;2023-03-01T02:42:11;94328.19;;;3.57
62930;BMP280;49036;42.782;23.108;2023-03-01T02:44:38;94330.94;;;3.57
62930;BMP280;49036;42.782;23.108;2023-03-01T02:47:04;94322.38;;;3.60
62930;BMP280;49036;42.782;23.108;2023-03-01T02:49:33;94334.50;;;3.65
62930;BMP280;49036;42.782;23.108;2023-03-01T02:57:17;94333.88;;;3.72
62930;BMP280;49036;42.782;23.108;2023-03-01T02:59:43;94329.66;;;3.71
62930;BMP280;49036;42.782;23.108;2023-03-01T03:02:25;94323.09;;;3.74
62930;BMP280;49036;42.782;23.108;2023-03-01T03:05:11;94330.69;;;3.68
62930;BMP280;49036;42.782;23.108;2023-03-01T03:07:40;94328.69;;;3.68
62930;BMP280;49036;42.782;23.108;2023-03-01T03:10:09;94326.69;;;3.69
62930;BMP280;49036;42.782;23.108;2023-03-01T03:12:37;94334.81;;;3.61
62930;BMP280;49036;42.782;23.108;2023-03-01T03:15:03;94330.28;;;3.64
62930;BMP280;49036;42.782;23.108;2023-03-01T03:17:35;94330.81;;;3.62
62930;BMP280;49036;42.782;23.108;2023-03-01T03:20:02;94339.56;;;3.61
62930;BMP280;49036;42.782;23.108;2023-03-01T03:22:29;94331.88;;;3.59
62930;BMP280;49036;42.782;23.108;2023-03-01T03:24:54;94332.59;;;3.60
62930;BMP280;49036;42.782;23.108;2023-03-01T03:27:20;94337.03;;;3.63
62930;BMP280;49036;42.782;23.108;2023-03-01T03:29:45;94339.38;;;3.59
62930;BMP280;49036;42.782;23.108;2023-03-01T03:32:11;94334.06;;;3.61
62930;BMP280;49036;42.782;23.108;2023-03-01T03:34:37;94340.44;;;3.56
62930;BMP280;49036;42.782;23.108;2023-03-01T03:37:02;94349.41;;;3.56
62930;BMP280;49036;42.782;23.108;2023-03-01T03:39:28;94352.88;;;3.57
62930;BMP280;49036;42.782;23.108;2023-03-01T03:41:54;94355.81;;;3.59
62930;BMP280;49036;42.782;23.108;2023-03-01T03:44:20;94345.78;;;3.61
62930;BMP280;49036;42.782;23.108;2023-03-01T03:46:46;94353.81;;;3.59
62930;BMP280;49036;42.782;23.108;2023-03-01T03:49:12;94351.06;;;3.59
62930;BMP280;49036;42.782;23.108;2023-03-01T03:51:37;94355.28;;;3.60
62930;BMP280;49036;42.782;23.108;2023-03-01T03:54:03;94354.88;;;3.56
62930;BMP280;49036;42.782;23.108;2023-03-01T03:56:28;94351.75;;;3.52
62930;BMP280;49036;42.782;23.108;2023-03-01T03:58:54;94354.16;;;3.56
62930;BMP280;49036;42.782;23.108;2023-03-01T04:01:20;94350.25;;;3.51
62930;BMP280;49036;42.782;23.108;2023-03-01T04:03:45;94348.25;;;3.52
62930;BMP280;49036;42.782;23.108;2023-03-01T04:06:13;94338.31;;;3.48
62930;BMP280;49036;42.782;23.108;2023-03-01T04:08:39;94333.81;;;3.51
62930;BMP280;49036;42.782;23.108;2023-03-01T04:11:05;94338.13;;;3.46
62930;BMP280;49036;42.782;23.108;2023-03-01T04:13:49;94337.47;;;3.40
62930;BMP280;49036;42.782;23.108;2023-03-01T04:16:16;94337.69;;;3.42
62930;BMP280;49036;42.782;23.108;2023-03-01T04:18:41;94344.78;;;3.38
62930;BMP280;49036;42.782;23.108;2023-03-01T04:21:07;94345.31;;;3.36
62930;BMP280;49036;42.782;23.108;2023-03-01T04:23:32;94335.59;;;3.35
62930;BMP280;49036;42.782;23.108;2023-03-01T04:25:59;94344.03;;;3.37
62930;BMP280;49036;42.782;23.108;2023-03-01T04:28:29;94349.84;;;3.34
62930;BMP280;49036;42.782;23.108;2023-03-01T04:30:57;94353.03;;;3.38
62930;BMP280;49036;42.782;23.108;2023-03-01T04:33:24;94346.97;;;3.39
62930;BMP280;49036;42.782;23.108;2023-03-01T04:35:50;94341.09;;;3.35
62930;BMP280;49036;42.782;23.108;2023-03-01T04:38:17;94349.41;;;3.30
62930;BMP280;49036;42.782;23.108;2023-03-01T04:40:43;94353.31;;;3.34
62930;BMP280;49036;42.782;23.108;2023-03-01T04:43:10;94351.63;;;3.31
62930;BMP280;49036;42.782;23.108;2023-03-01T04:45:36;94340.25;;;3.27
62930;BMP280;49036;42.782;23.108;2023-03-01T04:48:02;94341.50;;;3.26
62930;BMP280;49036;42.782;23.108;2023-03-01T04:50:28;94341.59;;;3.21
62930;BMP280;49036;42.782;23.108;2023-03-01T04:52:54;94346.34;;;3.20
62930;BMP280;49036;42.782;23.108;2023-03-01T04:55:24;94357.53;;;3.22
62930;BMP280;49036;42.782;23.108;2023-03-01T04:57:51;94353.84;;;3.19
62930;BMP280;49036;42.782;23.108;2023-03-01T05:00:16;94351.41;;;3.16
62930;BMP280;49036;42.782;23.108;2023-03-01T05:02:59;94351.22;;;3.14
62930;BMP280;49036;42.782;23.108;2023-03-01T05:05:32;94347.00;;;3.13
62930;BMP280;49036;42.782;23.108;2023-03-01T05:08:00;94344.03;;;3.11
62930;BMP280;49036;42.782;23.108;2023-03-01T05:10:27;94350.03;;;3.09
62930;BMP280;49036;42.782;23.108;2023-03-01T05:12:54;94343.81;;;3.09
62930;BMP280;49036;42.782;23.108;2023-03-01T05:15:22;94347.50;;;3.11
62930;BMP280;49036;42.782;23.108;2023-03-01T05:17:51;94350.97;;;3.12
62930;BMP280;49036;42.782;23.108;2023-03-01T05:20:17;94352.25;;;3.11
62930;BMP280;49036;42.782;23.108;2023-03-01T05:22:43;94357.53;;;3.09
62930;BMP280;49036;42.782;23.108;2023-03-01T05:25:09;94358.59;;;3.06
62930;BMP280;49036;42.782;23.108;2023-03-01T05:27:35;94358.06;;;3.07
62930;BMP280;49036;42.782;23.108;2023-03-01T05:30:02;94363.31;;;3.05
62930;BMP280;49036;42.782;23.108;2023-03-01T05:32:46;94358.16;;;3.02
62930;BMP280;49036;42.782;23.108;2023-03-01T05:35:13;94358.59;;;3.06
62930;BMP280;49036;42.782;23.108;2023-03-01T05:37:41;94365.53;;;3.07
62930;BMP280;49036;42.782;23.108;2023-03-01T05:40:08;94368.28;;;3.07
62930;BMP280;49036;42.782;23.108;2023-03-01T05:42:42;94366.03;;;3.05
62930;BMP280;49036;42.782;23.108;2023-03-01T05:45:09;94371.75;;;3.07
62930;BMP280;49036;42.782;23.108;2023-03-01T05:47:35;94371.03;;;3.07
62930;BMP280;49036;42.782;23.108;2023-03-01T05:50:01;94367.22;;;3.10
62930;BMP280;49036;42.782;23.108;2023-03-01T05:52:26;94377.47;;;3.09
62930;BMP280;49036;42.782;23.108;2023-03-01T05:54:52;94383.69;;;3.10
62930;BMP280;49036;42.782;23.108;2023-03-01T05:57:17;94378.41;;;3.12
62930;BMP280;49036;42.782;23.108;2023-03-01T05:59:43;94381.16;;;3.12
62930;BMP280;49036;42.782;23.108;2023-03-01T06:02:08;94394.84;;;3.12
62930;BMP280;49036;42.782;23.108;2023-03-01T06:04:34;94382.41;;;3.11
62930;BMP280;49036;42.782;23.108;2023-03-01T06:06:59;94386.22;;;3.08
62930;BMP280;49036;42.782;23.108;2023-03-01T06:09:25;94392.44;;;3.08
62930;BMP280;49036;42.782;23.108;2023-03-01T06:11:51;94387.69;;;3.09
62930;BMP280;49036;42.782;23.108;2023-03-01T06:14:16;94393.69;;;3.07
62930;BMP280;49036;42.782;23.108;2023-03-01T06:16:42;94392.97;;;3.07
62930;BMP280;49036;42.782;23.108;2023-03-01T06:19:07;94397.31;;;3.15
62930;BMP280;49036;42.782;23.108;2023-03-01T06:21:33;94398.22;;;3.18
62930;BMP280;49036;42.782;23.108;2023-03-01T06:23:58;94401.84;;;3.26
62930;BMP280;49036;42.782;23.108;2023-03-01T06:26:24;94408.06;;;3.27
62930;BMP280;49036;42.782;23.108;2023-03-01T06:28:49;94409.00;;;3.29
62930;BMP280;49036;42.782;23.108;2023-03-01T06:31:15;94410.94;;;3.34
62930;BMP280;49036;42.782;23.108;2023-03-01T06:33:40;94405.88;;;3.38
62930;BMP280;49036;42.782;23.108;2023-03-01T06:36:07;94409.34;;;3.39
62930;BMP280;49036;42.782;23.108;2023-03-01T06:38:33;94407.25;;;3.45
62930;BMP280;49036;42.782;23.108;2023-03-01T06:40:58;94399.22;;;3.47
62930;BMP280;49036;42.782;23.108;2023-03-01T06:43:24;94399.53;;;3.57
62930;BMP280;49036;42.782;23.108;2023-03-01T06:45:49;94404.69;;;3.60
62930;BMP280;49036;42.782;23.108;2023-03-01T06:48:15;94399.84;;;3.66
62930;BMP280;49036;42.782;23.108;2023-03-01T06:50:41;94395.28;;;3.69
62930;BMP280;49036;42.782;23.108;2023-03-01T06:53:06;94401.75;;;3.71
62930;BMP280;49036;42.782;23.108;2023-03-01T06:55:32;94403.75;;;3.71
62930;BMP280;49036;42.782;23.108;2023-03-01T06:57:59;94403.75;;;3.71
62930;BMP280;49036;42.782;23.108;2023-03-01T07:00:25;94401.53;;;3.69
62930;BMP280;49036;42.782;23.108;2023-03-01T07:02:51;94399.75;;;3.72
62930;BMP280;49036;42.782;23.108;2023-03-01T07:05:17;94401.00;;;3.71
62930;BMP280;49036;42.782;23.108;2023-03-01T07:07:42;94398.69;;;3.75
62930;BMP280;49036;42.782;23.108;2023-03-01T07:10:09;94400.34;;;3.78
62930;BMP280;49036;42.782;23.108;2023-03-01T07:12:34;94390.50;;;3.83
62930;BMP280;49036;42.782;23.108;2023-03-01T07:15:00;94381.34;;;3.93
62930;BMP280;49036;42.782;23.108;2023-03-01T07:17:25;94386.59;;;4.04
62930;BMP280;49036;42.782;23.108;2023-03-01T07:19:51;94382.63;;;4.13
62930;BMP280;49036;42.782;23.108;2023-03-01T07:22:16;94380.75;;;4.21
62930;BMP280;49036;42.782;23.108;2023-03-01T07:24:42;94382.41;;;4.45
62930;BMP280;49036;42.782;23.108;2023-03-01T07:27:08;94380.22;;;4.64
62930;BMP280;49036;42.782;23.108;2023-03-01T07:29:33;94375.88;;;4.69
62930;BMP280;49036;42.782;23.108;2023-03-01T07:32:02;94379.63;;;4.79
62930;BMP280;49036;42.782;23.108;2023-03-01T07:34:27;94377.13;;;4.89
62930;BMP280;49036;42.782;23.108;2023-03-01T07:36:53;94376.16;;;5.07
62930;BMP280;49036;42.782;23.108;2023-03-01T07:39:18;94370.72;;;5.15
62930;BMP280;49036;42.782;23.108;2023-03-01T07:41:44;94372.75;;;5.22
62930;BMP280;49036;42.782;23.108;2023-03-01T07:44:10;94370.00;;;5.22
62930;BMP280;49036;42.782;23.108;2023-03-01T07:46:36;94376.66;;;5.27
62930;BMP280;49036;42.782;23.108;2023-03-01T07:49:01;94377.63;;;5.37
62930;BMP280;49036;42.782;23.108;2023-03-01T07:51:27;94379.19;;;5.53
62930;BMP280;49036;42.782;23.108;2023-03-01T07:53:52;94375.53;;;5.50
62930;BMP280;49036;42.782;23.108;2023-03-01T07:56:18;94359.50;;;5.41
62930;BMP280;49036;42.782;23.108;2023-03-01T07:58:45;94376.13;;;5.64
62930;BMP280;49036;42.782;23.108;2023-03-01T08:01:12;94361.41;;;5.54
62930;BMP280;49036;42.782;23.108;2023-03-01T08:03:39;94365.75;;;5.49
62930;BMP280;49036;42.782;23.108;2023-03-01T08:06:08;94367.84;;;5.57
62930;BMP280;49036;42.782;23.108;2023-03-01T08:08:34;94370.06;;;5.66
62930;BMP280;49036;42.782;23.108;2023-03-01T08:11:01;94371.38;;;5.65
62930;BMP280;49036;42.782;23.108;2023-03-01T08:13:27;94368.38;;;5.55
62930;BMP280;49036;42.782;23.108;2023-03-01T08:15:53;94362.53;;;5.59
62930;BMP280;49036;42.782;23.108;2023-03-01T08:18:20;94360.72;;;5.69
62930;BMP280;49036;42.782;23.108;2023-03-01T08:20:46;94366.47;;;5.86
62930;BMP280;49036;42.782;23.108;2023-03-01T08:23:12;94369.81;;;5.92
62930;BMP280;49036;42.782;23.108;2023-03-01T08:25:38;94365.44;;;6.04
62930;BMP280;49036;42.782;23.108;2023-03-01T08:28:04;94360.09;;;5.99
62930;BMP280;49036;42.782;23.108;2023-03-01T08:30:29;94349.06;;;5.91
62930;BMP280;49036;42.782;23.108;2023-03-01T08:32:55;94356.03;;;5.92
62930;BMP280;49036;42.782;23.108;2023-03-01T08:35:21;94361.91;;;5.89
62930;BMP280;49036;42.782;23.108;2023-03-01T08:37:46;94356.00;;;5.77
62930;BMP280;49036;42.782;23.108;2023-03-01T08:40:12;94364.66;;;5.89
62930;BMP280;49036;42.782;23.108;2023-03-01T08:42:41;94367.63;;;5.91
62930;BMP280;49036;42.782;23.108;2023-03-01T08:45:08;94357.91;;;5.97
62930;BMP280;49036;42.782;23.108;2023-03-01T08:47:34;94360.41;;;5.88
62930;BMP280;49036;42.782;23.108;2023-03-01T08:50:00;94363.03;;;5.93
62930;BMP280;49036;42.782;23.108;2023-03-01T08:52:26;94357.31;;;5.91
62930;BMP280;49036;42.782;23.108;2023-03-01T08:54:52;94361.16;;;5.88
62930;BMP280;49036;42.782;23.108;2023-03-01T08:57:18;94361.22;;;5.96
62930;BMP280;49036;42.782;23.108;2023-03-01T08:59:43;94363.00;;;5.86
62930;BMP280;49036;42.782;23.108;2023-03-01T09:02:12;94361.22;;;6.03
62930;BMP280;49036;42.782;23.108;2023-03-01T09:04:38;94358.72;;;6.28
62930;BMP280;49036;42.782;23.108;2023-03-01T09:07:03;94361.88;;;6.55
62930;BMP280;49036;42.782;23.108;2023-03-01T09:09:29;94353.81;;;6.80
62930;BMP280;49036;42.782;23.108;2023-03-01T09:11:55;94348.44;;;6.90
62930;BMP280;49036;42.782;23.108;2023-03-01T09:14:20;94341.41;;;7.19
62930;BMP280;49036;42.782;23.108;2023-03-01T09:16:46;94338.69;;;7.12
62930;BMP280;49036;42.782;23.108;2023-03-01T09:19:12;94340.34;;;6.84
62930;BMP280;49036;42.782;23.108;2023-03-01T09:21:37;94350.13;;;6.85
62930;BMP280;49036;42.782;23.108;2023-03-01T09:24:03;94351.19;;;6.90
62930;BMP280;49036;42.782;23.108;2023-03-01T09:26:29;94355.97;;;7.05
62930;BMP280;49036;42.782;23.108;2023-03-01T09:28:55;94354.09;;;7.15
62930;BMP280;49036;42.782;23.108;2023-03-01T09:31:23;94350.56;;;7.37
62930;BMP280;49036;42.782;23.108;2023-03-01T09:33:51;94340.59;;;7.42
62930;BMP280;49036;42.782;23.108;2023-03-01T09:36:19;94338.59;;;7.35
62930;BMP280;49036;42.782;23.108;2023-03-01T09:38:46;94340.78;;;7.36
62930;BMP280;49036;42.782;23.108;2023-03-01T09:43:52;94334.00;;;7.37
62930;BMP280;49036;42.782;23.108;2023-03-01T09:46:20;94339.22;;;7.18
62930;BMP280;49036;42.782;23.108;2023-03-01T09:49:01;94331.31;;;7.07
62930;BMP280;49036;42.782;23.108;2023-03-01T09:51:34;94326.31;;;7.20
62930;BMP280;49036;42.782;23.108;2023-03-01T09:54:04;94329.91;;;7.46
62930;BMP280;49036;42.782;23.108;2023-03-01T09:56:34;94332.47;;;7.51
62930;BMP280;49036;42.782;23.108;2023-03-01T10:01:35;94328.56;;;7.62
62930;BMP280;49036;42.782;23.108;2023-03-01T10:06:55;94321.31;;;7.82
62930;BMP280;49036;42.782;23.108;2023-03-01T10:09:23;94324.59;;;7.80
62930;BMP280;49036;42.782;23.108;2023-03-01T10:11:52;94324.66;;;7.73
62930;BMP280;49036;42.782;23.108;2023-03-01T10:19:45;94312.03;;;7.87
62930;BMP280;49036;42.782;23.108;2023-03-01T10:22:26;94324.75;;;7.50
62930;BMP280;49036;42.782;23.108;2023-03-01T10:25:02;94325.50;;;7.43
62930;BMP280;49036;42.782;23.108;2023-03-01T10:27:41;94318.38;;;7.32
62930;BMP280;49036;42.782;23.108;2023-03-01T10:30:21;94307.50;;;7.34
62930;BMP280;49036;42.782;23.108;2023-03-01T10:32:49;94301.44;;;7.28
62930;BMP280;49036;42.782;23.108;2023-03-01T10:35:22;94313.25;;;7.13
62930;BMP280;49036;42.782;23.108;2023-03-01T10:38:06;94314.22;;;6.93
62930;BMP280;49036;42.782;23.108;2023-03-01T10:40:36;94303.00;;;6.91
62930;BMP280;49036;42.782;23.108;2023-03-01T10:43:03;94309.09;;;6.74
62930;BMP280;49036;42.782;23.108;2023-03-01T10:48:14;94294.59;;;6.66
62930;BMP280;49036;42.782;23.108;2023-03-01T10:50:42;94292.00;;;6.60
62930;BMP280;49036;42.782;23.108;2023-03-01T10:53:24;94300.44;;;6.70
62930;BMP280;49036;42.782;23.108;2023-03-01T10:56:03;94289.22;;;6.91
62930;BMP280;49036;42.782;23.108;2023-03-01T10:58:30;94276.78;;;7.30
62930;BMP280;49036;42.782;23.108;2023-03-01T11:01:00;94272.78;;;7.64
62930;BMP280;49036;42.782;23.108;2023-03-01T11:03:34;94282.81;;;7.84
62930;BMP280;49036;42.782;23.108;2023-03-01T11:08:43;94278.75;;;7.77
62930;BMP280;49036;42.782;23.108;2023-03-01T11:14:33;94271.31;;;7.63
62930;BMP280;49036;42.782;23.108;2023-03-01T11:16:36;94272.59;;;7.61
62930;BMP280;49036;42.782;23.108;2023-03-01T11:21:39;94270.03;;;7.56
62930;BMP280;49036;42.782;23.108;2023-03-01T11:24:08;94267.06;;;7.61
62930;BMP280;49036;42.782;23.108;2023-03-01T11:26:38;94268.34;;;7.60
62930;BMP280;49036;42.782;23.108;2023-03-01T11:29:15;94264.88;;;7.60
62930;BMP280;49036;42.782;23.108;2023-03-01T11:31:42;94267.25;;;7.64
62930;BMP280;49036;42.782;23.108;2023-03-01T11:34:14;94256.34;;;7.66
62930;BMP280;49036;42.782;23.108;2023-03-01T11:36:46;94254.13;;;7.72
62930;BMP280;49036;42.782;23.108;2023-03-01T11:41:43;94254.06;;;7.79
62930;BMP280;49036;42.782;23.108;2023-03-01T11:44:23;94250.03;;;8.05
62930;BMP280;49036;42.782;23.108;2023-03-01T11:50:10;94229.03;;;8.87
62930;BMP280;49036;42.782;23.108;2023-03-01T12:07:06;94229.31;;;8.14
62930;BMP280;49036;42.782;23.108;2023-03-01T12:18:12;94215.53;;;7.89
62930;BMP280;49036;42.782;23.108;2023-03-01T12:21:02;94231.63;;;8.00
62930;BMP280;49036;42.782;23.108;2023-03-01T12:26:27;94226.94;;;8.35
62930;BMP280;49036;42.782;23.108;2023-03-01T12:29:22;94212.47;;;8.62
62930;BMP280;49036;42.782;23.108;2023-03-01T12:35:05;94210.47;;;8.79
62930;BMP280;49036;42.782;23.108;2023-03-01T12:38:06;94215.84;;;8.77
62930;BMP280;49036;42.782;23.108;2023-03-01T12:41:01;94213.00;;;8.85
62930;BMP280;49036;42.782;23.108;2023-03-01T12:46:25;94203.88;;;9.36
62930;BMP280;49036;42.782;23.108;2023-03-01T12:49:13;94199.06;;;9.73
62930;BMP280;49036;42.782;23.108;2023-03-01T12:51:44;94201.97;;;10.02
62930;BMP280;49036;42.782;23.108;2023-03-01T12:54:26;94205.00;;;9.97
62930;BMP280;49036;42.782;23.108;2023-03-01T12:56:53;94206.56;;;9.54
62930;BMP280;49036;42.782;23.108;2023-03-01T12:59:34;94217.00;;;9.36
62930;BMP280;49036;42.782;23.108;2023-03-01T13:02:26;94215.66;;;9.10
62930;BMP280;49036;42.782;23.108;2023-03-01T13:05:19;94213.47;;;8.74
62930;BMP280;49036;42.782;23.108;2023-03-01T13:07:58;94212.16;;;8.58
62930;BMP280;49036;42.782;23.108;2023-03-01T13:10:31;94225.81;;;8.38
62930;BMP280;49036;42.782;23.108;2023-03-01T13:13:12;94209.03;;;8.36
62930;BMP280;49036;42.782;23.108;2023-03-01T13:15:40;94208.88;;;8.34
62930;BMP280;49036;42.782;23.108;2023-03-01T13:26:09;94224.00;;;8.33
62930;BMP280;49036;42.782;23.108;2023-03-01T13:33:54;94239.63;;;7.31
62930;BMP280;49036;42.782;23.108;2023-03-01T13:39:33;94235.09;;;7.03
62930;BMP280;49036;42.782;23.108;2023-03-01T13:42:03;94224.47;;;6.92
62930;BMP280;49036;42.782;23.108;2023-03-01T13:44:34;94227.94;;;7.00
62930;BMP280;49036;42.782;23.108;2023-03-01T13:49:52;94216.31;;;7.09
62930;BMP280;49036;42.782;23.108;2023-03-01T13:52:44;94226.41;;;7.14
62930;BMP280;49036;42.782;23.108;2023-03-01T13:57:39;94219.53;;;6.83
62930;BMP280;49036;42.782;23.108;2023-03-01T14:00:05;94221.41;;;6.73
62930;BMP280;49036;42.782;23.108;2023-03-01T14:02:31;94213.50;;;6.69
62930;BMP280;49036;42.782;23.108;2023-03-01T14:05:00;94207.63;;;6.73
62930;BMP280;49036;42.782;23.108;2023-03-01T14:07:27;94211.25;;;6.90
62930;BMP280;49036;42.782;23.108;2023-03-01T14:09:58;94213.72;;;7.19
62930;BMP280;49036;42.782;23.108;2023-03-01T14:15:04;94199.44;;;7.38
62930;BMP280;49036;42.782;23.108;2023-03-01T14:17:41;94199.94;;;7.51
62930;BMP280;49036;42.782;23.108;2023-03-01T14:20:12;94196.19;;;7.64
62930;BMP280;49036;42.782;23.108;2023-03-01T14:22:40;94196.84;;;7.72
62930;BMP280;49036;42.782;23.108;2023-03-01T14:27:58;94202.88;;;7.78
62930;BMP280;49036;42.782;23.108;2023-03-01T14:30:32;94201.25;;;7.43
62930;BMP280;49036;42.782;23.108;2023-03-01T14:33:01;94197.31;;;7.21
62930;BMP280;49036;42.782;23.108;2023-03-01T14:35:29;94191.16;;;6.97
62930;BMP280;49036;42.782;23.108;2023-03-01T14:37:55;94193.06;;;6.72
62930;BMP280;49036;42.782;23.108;2023-03-01T14:40:29;94195.84;;;6.64
62930;BMP280;49036;42.782;23.108;2023-03-01T14:42:57;94200.66;;;6.49
62930;BMP280;49036;42.782;23.108;2023-03-01T14:45:25;94191.50;;;6.46
62930;BMP280;49036;42.782;23.108;2023-03-01T14:47:51;94192.94;;;6.39
62930;BMP280;49036;42.782;23.108;2023-03-01T14:50:27;94194.25;;;6.31
62930;BMP280;49036;42.782;23.108;2023-03-01T14:53:02;94192.78;;;6.30
62930;BMP280;49036;42.782;23.108;2023-03-01T14:55:32;94191.34;;;6.29
62930;BMP280;49036;42.782;23.108;2023-03-01T14:57:58;94187.09;;;6.28
62930;BMP280;49036;42.782;23.108;2023-03-01T15:00:26;94189.88;;;6.28
62930;BMP280;49036;42.782;23.108;2023-03-01T15:02:55;94187.47;;;6.24
62930;BMP280;49036;42.782;23.108;2023-03-01T15:05:30;94188.56;;;6.29
62930;BMP280;49036;42.782;23.108;2023-03-01T15:07:57;94190.78;;;6.30
62930;BMP280;49036;42.782;23.108;2023-03-01T15:10:29;94189.09;;;6.35
62930;BMP280;49036;42.782;23.108;2023-03-01T15:12:55;94189.66;;;6.33
62930;BMP280;49036;42.782;23.108;2023-03-01T15:15:45;94187.47;;;6.32
62930;BMP280;49036;42.782;23.108;2023-03-01T15:20:40;94181.22;;;6.31
62930;BMP280;49036;42.782;23.108;2023-03-01T15:23:26;94196.66;;;6.19
62930;BMP280;49036;42.782;23.108;2023-03-01T15:25:53;94194.81;;;6.14
62930;BMP280;49036;42.782;23.108;2023-03-01T15:28:31;94189.28;;;6.14
62930;BMP280;49036;42.782;23.108;2023-03-01T15:33:34;94190.41;;;6.11
62930;BMP280;49036;42.782;23.108;2023-03-01T15:39:25;94190.97;;;6.02
62930;BMP280;49036;42.782;23.108;2023-03-01T15:41:49;94184.34;;;5.82
62930;BMP280;49036;42.782;23.108;2023-03-01T15:44:26;94191.31;;;5.75
62930;BMP280;49036;42.782;23.108;2023-03-01T15:46:52;94192.75;;;5.61
62930;BMP280;49036;42.782;23.108;2023-03-01T15:51:52;94183.38;;;5.41
62930;BMP280;49036;42.782;23.108;2023-03-01T15:54:21;94175.81;;;5.27
62930;BMP280;49036;42.782;23.108;2023-03-01T15:56:47;94173.75;;;5.19
62930;BMP280;49036;42.782;23.108;2023-03-01T15:59:13;94178.13;;;5.07
62930;BMP280;49036;42.782;23.108;2023-03-01T16:01:41;94178.09;;;5.00
62930;BMP280;49036;42.782;23.108;2023-03-01T16:04:12;94188.88;;;4.90
62930;BMP280;49036;42.782;23.108;2023-03-01T16:06:41;94179.44;;;4.78
62930;BMP280;49036;42.782;23.108;2023-03-01T16:09:07;94185.66;;;4.71